createdAt,value
2023-01-29T00:06:07.339Z,-2.52
2023-01-29T00:13:25.994Z,-2.36
2023-01-29T00:20:45.160Z,-2.37
2023-01-29T00:28:04.751Z,-2.55
2023-01-29T00:35:23.004Z,-2.75
2023-01-29T00:42:58.808Z,-2.86
2023-01-29T00:50:18.983Z,-2.94
2023-01-29T00:57:38.213Z,-2.94
2023-01-29T01:04:57.047Z,-2.95
2023-01-29T01:12:20.139Z,-2.88
2023-01-29T01:19:38.373Z,-2.73
2023-01-29T01:26:56.755Z,-2.64
2023-01-29T01:34:16.790Z,-2.64
2023-01-29T01:41:34.914Z,-2.56
2023-01-29T01:48:57.081Z,-2.48
2023-01-29T01:56:19.278Z,-2.47
2023-01-29T02:04:00.443Z,-2.48
2023-01-29T02:11:20.082Z,-2.41
2023-01-29T02:18:39.561Z,-2.40
2023-01-29T02:26:25.317Z,-2.29
2023-01-29T02:33:52.371Z,-2.35
2023-01-29T02:41:16.298Z,-2.26
2023-01-29T02:48:42.556Z,-2.16
2023-01-29T02:56:08.208Z,-2.18
2023-01-29T03:03:30.018Z,-2.20
2023-01-29T03:10:56.640Z,-2.10
2023-01-29T03:18:19.767Z,-2.19
2023-01-29T03:25:56.661Z,-2.20
2023-01-29T03:33:22.889Z,-2.16
2023-01-29T03:40:47.167Z,-2.23
2023-01-29T03:48:09.562Z,-2.19
2023-01-29T03:55:34.818Z,-2.20
2023-01-29T04:02:59.085Z,-2.12
2023-01-29T04:10:19.681Z,-2.14
2023-01-29T04:17:41.844Z,-2.10
2023-01-29T04:25:08.634Z,-2.14
2023-01-29T04:32:32.324Z,-2.13
2023-01-29T04:39:57.292Z,-2.15
2023-01-29T04:47:22.294Z,-2.08
2023-01-29T04:54:53.021Z,-2.14
2023-01-29T05:02:12.117Z,-2.20
2023-01-29T05:09:30.933Z,-2.20
2023-01-29T05:16:53.662Z,-2.27
2023-01-29T05:24:13.008Z,-2.34
2023-01-29T05:31:31.273Z,-2.31
2023-01-29T05:38:51.023Z,-2.27
2023-01-29T05:46:09.789Z,-2.28
2023-01-29T05:53:27.946Z,-2.42
2023-01-29T06:00:47.981Z,-2.46
2023-01-29T06:08:07.350Z,-2.40
2023-01-29T06:15:26.753Z,-2.24
2023-01-29T06:22:46.333Z,-2.39
2023-01-29T06:30:04.912Z,-2.42
2023-01-29T06:37:23.058Z,-2.49
2023-01-29T06:44:42.873Z,-2.51
2023-01-29T06:52:01.075Z,-2.55
2023-01-29T06:59:19.311Z,-2.59
2023-01-29T07:06:39.052Z,-2.59
2023-01-29T07:13:57.346Z,-2.42
2023-01-29T07:21:15.798Z,-2.38
2023-01-29T07:28:39.084Z,-2.39
2023-01-29T07:35:57.097Z,-2.25
2023-01-29T07:43:16.180Z,-1.98
2023-01-29T07:50:39.061Z,-1.94
2023-01-29T07:57:57.851Z,-2.09
2023-01-29T08:05:16.076Z,-2.03
2023-01-29T08:12:35.917Z,-1.91
2023-01-29T08:19:54.193Z,-1.72
2023-01-29T08:27:12.850Z,-1.75
2023-01-29T08:34:32.410Z,-1.66
2023-01-29T08:41:50.794Z,-1.52
2023-01-29T08:49:09.938Z,-1.31
2023-01-29T08:56:29.599Z,-1.25
2023-01-29T09:03:47.753Z,-1.02
2023-01-29T09:11:06.317Z,-0.78
2023-01-29T09:18:26.615Z,-0.96
2023-01-29T09:25:45.075Z,-0.87
2023-01-29T09:33:03.226Z,-1.05
2023-01-29T09:40:28.010Z,-1.21
2023-01-29T09:47:46.348Z,-0.61
2023-01-29T09:55:08.755Z,-0.20
2023-01-29T10:02:51.214Z,0.09
2023-01-29T10:10:26.302Z,0.90
2023-01-29T10:18:09.521Z,1.14
2023-01-29T10:25:28.698Z,0.87
2023-01-29T10:32:47.373Z,0.30
2023-01-29T10:40:22.454Z,0.57
2023-01-29T10:48:19.056Z,0.30
2023-01-29T10:55:53.662Z,0.61
2023-01-29T11:03:27.316Z,0.58
2023-01-29T11:10:54.541Z,1.44
2023-01-29T11:18:15.939Z,1.24
2023-01-29T11:25:40.056Z,0.98
2023-01-29T11:33:20.428Z,0.54
2023-01-29T11:40:42.700Z,0.60
2023-01-29T11:48:01.751Z,0.55
2023-01-29T11:55:25.473Z,0.39
2023-01-29T12:02:45.580Z,0.43
2023-01-29T12:10:04.204Z,0.33
2023-01-29T12:17:26.460Z,0.47
2023-01-29T12:24:49.617Z,0.68
2023-01-29T12:32:13.796Z,0.60
2023-01-29T12:39:33.730Z,0.33
2023-01-29T12:46:54.593Z,0.38
2023-01-29T12:54:16.353Z,0.57
2023-01-29T13:01:39.086Z,0.54
2023-01-29T13:09:00.366Z,0.66
2023-01-29T13:16:23.032Z,0.73
2023-01-29T13:23:45.272Z,0.78
2023-01-29T13:31:15.989Z,0.98
2023-01-29T13:38:36.271Z,1.06
2023-01-29T13:45:56.827Z,1.02
2023-01-29T13:53:22.794Z,0.96
2023-01-29T14:01:01.526Z,1.13
2023-01-29T14:08:41.728Z,0.98
2023-01-29T14:16:29.613Z,1.02
2023-01-29T14:23:49.596Z,0.99
2023-01-29T14:31:08.785Z,0.93
2023-01-29T14:38:30.284Z,0.87
2023-01-29T14:45:49.924Z,0.85
2023-01-29T14:53:13.291Z,0.60
2023-01-29T15:00:40.579Z,0.55
2023-01-29T15:08:02.140Z,0.41
2023-01-29T15:15:27.423Z,0.33
2023-01-29T15:22:47.636Z,0.20
2023-01-29T15:30:09.337Z,0.17
2023-01-29T15:37:29.327Z,0.18
2023-01-29T15:44:49.053Z,0.03
2023-01-29T15:52:10.408Z,0.12
2023-01-29T15:59:34.640Z,0.20
2023-01-29T16:06:55.033Z,0.06
2023-01-29T16:14:14.661Z,0.06
2023-01-29T16:21:34.638Z,-0.12
2023-01-29T16:28:54.386Z,0.00
2023-01-29T16:36:17.321Z,-0.09
2023-01-29T16:43:55.030Z,-0.03
2023-01-29T16:51:16.109Z,-0.02
2023-01-29T16:58:34.521Z,-0.03
2023-01-29T17:05:54.486Z,-0.04
2023-01-29T17:13:22.817Z,-0.03
2023-01-29T17:20:41.225Z,-0.09
2023-01-29T17:28:03.034Z,-0.19
2023-01-29T17:35:21.546Z,-0.24
2023-01-29T17:42:41.114Z,-0.28
2023-01-29T17:50:01.577Z,-0.26
2023-01-29T17:57:19.908Z,-0.18
2023-01-29T18:04:38.657Z,-0.25
2023-01-29T18:11:58.311Z,-0.21
2023-01-29T18:19:21.309Z,-0.12
2023-01-29T18:26:39.914Z,-0.13
2023-01-29T18:33:59.581Z,-0.07
2023-01-29T18:41:18.231Z,-0.06
2023-01-29T18:48:36.707Z,-0.06
2023-01-29T18:55:57.912Z,0.00
2023-01-29T19:03:17.385Z,-0.02
2023-01-29T19:10:37.751Z,0.09
2023-01-29T19:17:57.649Z,0.14
2023-01-29T19:25:17.104Z,0.05
2023-01-29T19:32:35.904Z,0.01
2023-01-29T19:39:55.513Z,0.01
2023-01-29T19:47:14.416Z,0.04
2023-01-29T19:54:32.824Z,-0.07
2023-01-29T20:01:52.624Z,-0.05
2023-01-29T20:09:11.353Z,-0.25
2023-01-29T20:16:30.035Z,-0.42
2023-01-29T20:23:53.064Z,-0.51
2023-01-29T20:31:11.783Z,-0.64
2023-01-29T20:38:31.887Z,-0.61
2023-01-29T20:45:51.753Z,-0.52
2023-01-29T20:53:13.312Z,-0.53
2023-01-29T21:00:32.017Z,-0.51
2023-01-29T21:07:52.255Z,-0.48
2023-01-29T21:15:11.697Z,-0.68
2023-01-29T21:22:29.980Z,-0.80
2023-01-29T21:29:49.958Z,-1.10
2023-01-29T21:37:09.469Z,-1.21
2023-01-29T21:44:27.758Z,-1.34
2023-01-29T21:51:47.366Z,-1.40
2023-01-29T21:59:05.948Z,-1.45
2023-01-29T22:06:24.238Z,-1.42
2023-01-29T22:13:44.192Z,-1.45
2023-01-29T22:21:03.647Z,-1.51
2023-01-29T22:28:22.374Z,-1.59
2023-01-29T22:35:42.386Z,-1.63
2023-01-29T22:43:00.627Z,-1.58
2023-01-29T22:50:19.264Z,-1.48
2023-01-29T22:57:40.297Z,-1.38
2023-01-29T23:04:58.964Z,-1.27
2023-01-29T23:12:17.473Z,-1.30
2023-01-29T23:19:37.395Z,-1.14
2023-01-29T23:27:13.213Z,-1.22
2023-01-29T23:34:31.664Z,-1.01
2023-01-29T23:41:51.527Z,-0.95
2023-01-29T23:49:09.897Z,-0.96
2023-01-29T23:56:28.428Z,-0.89
